Time;durP1;ratioP1;P1;durP2;ratioP2;P2;SDS_P1;SDS_P2;PMS_P1;PMS_P2;Temp;Humidity;BMP_temperature;BMP_pressure;BME280_temperature;BME280_humidity;BME280_pressure;Samples;Min_cycle;Max_cycle;Signal;HPM_P1;HPM_P2
2021/08/14 00:01:30;;;;;;;10.93;8.60;;;29.80;53.80;;;;;;4955450;29;20031;-51
2021/08/14 00:03:56;;;;;;;12.05;8.73;;;29.80;53.90;;;;;;4956064;29;20027;-53
2021/08/14 00:06:21;;;;;;;10.45;8.68;;;29.80;53.90;;;;;;4955776;29;20058;-54
2021/08/14 00:08:47;;;;;;;21.67;8.65;;;29.80;54.00;;;;;;4955095;29;20465;-52
2021/08/14 00:11:13;;;;;;;15.57;9.68;;;29.80;54.00;;;;;;4955655;29;20046;-52
2021/08/14 00:13:39;;;;;;;12.65;8.35;;;29.80;54.10;;;;;;4954743;29;20038;-51
2021/08/14 00:16:05;;;;;;;14.52;9.32;;;29.70;54.10;;;;;;4955152;29;20031;-50
2021/08/14 00:18:31;;;;;;;12.30;8.57;;;29.70;54.10;;;;;;4953362;29;20457;-52
2021/08/14 00:20:57;;;;;;;12.88;9.02;;;29.70;54.10;;;;;;4955391;29;20031;-52
2021/08/14 00:23:23;;;;;;;11.18;8.93;;;29.80;54.10;;;;;;4955613;29;20027;-52
2021/08/14 00:25:48;;;;;;;12.35;8.98;;;29.70;54.10;;;;;;4954830;29;20425;-54
2021/08/14 00:28:14;;;;;;;11.50;9.02;;;29.70;54.20;;;;;;4938095;29;20122;-50
2021/08/14 00:30:40;;;;;;;11.55;8.48;;;29.70;54.30;;;;;;4954886;29;20050;-49
2021/08/14 00:33:06;;;;;;;12.00;9.57;;;29.70;54.30;;;;;;4949916;29;20395;-52
2021/08/14 00:35:31;;;;;;;12.13;9.13;;;29.70;54.30;;;;;;4953456;29;20480;-58
2021/08/14 00:37:57;;;;;;;12.38;8.32;;;29.70;54.30;;;;;;4955188;29;20027;-52
2021/08/14 00:40:23;;;;;;;12.00;9.18;;;29.70;54.20;;;;;;4937748;29;20027;-52
2021/08/14 00:42:49;;;;;;;11.77;8.60;;;29.70;54.30;;;;;;4953326;29;20059;-48
2021/08/14 00:45:14;;;;;;;11.77;9.90;;;29.70;54.10;;;;;;4954706;29;20046;-52
2021/08/14 00:47:43;;;;;;;14.50;9.65;;;29.70;54.20;;;;;;4954176;29;20105;-54
2021/08/14 00:50:10;;;;;;;11.73;9.07;;;29.60;54.20;;;;;;4954406;29;20027;-52
2021/08/14 00:52:36;;;;;;;12.90;9.15;;;29.70;54.30;;;;;;4953318;28;20074;-51
2021/08/14 00:55:02;;;;;;;13.38;9.20;;;29.70;54.30;;;;;;4953510;29;20457;-52
2021/08/14 00:57:28;;;;;;;11.68;8.70;;;29.60;54.20;;;;;;4953770;29;20035;-59
2021/08/14 00:59:54;;;;;;;12.65;8.90;;;29.60;54.30;;;;;;4953492;29;20453;-53
2021/08/14 01:02:21;;;;;;;13.57;9.18;;;29.60;54.30;;;;;;4954411;29;20074;-52
2021/08/14 01:04:50;;;;;;;12.30;9.18;;;29.60;54.30;;;;;;4954129;29;20027;-52
2021/08/14 01:07:18;;;;;;;13.68;9.02;;;29.60;54.30;;;;;;4953410;29;20087;-49
2021/08/14 01:09:45;;;;;;;16.73;8.98;;;29.70;54.30;;;;;;4952761;29;20473;-52
2021/08/14 01:12:16;;;;;;;12.35;9.35;;;29.60;54.30;;;;;;4952950;29;20042;-48
2021/08/14 01:14:44;;;;;;;15.02;9.60;;;29.60;54.40;;;;;;4954198;29;20035;-50
2021/08/14 01:17:10;;;;;;;15.98;9.07;;;29.60;54.50;;;;;;4954584;29;20038;-51
2021/08/14 01:19:36;;;;;;;14.93;8.77;;;29.60;54.50;;;;;;4953960;29;20035;-52
2021/08/14 01:22:03;;;;;;;15.40;9.30;;;29.60;54.40;;;;;;4953309;29;20038;-53
2021/08/14 01:24:34;;;;;;;12.85;9.00;;;29.60;54.30;;;;;;4954302;29;20046;-59
2021/08/14 01:26:59;;;;;;;11.43;8.63;;;29.60;54.30;;;;;;4954380;29;20092;-53
2021/08/14 01:29:25;;;;;;;14.50;9.25;;;29.60;54.30;;;;;;4954107;29;20457;-54
2021/08/14 01:31:51;;;;;;;13.85;9.02;;;29.60;54.30;;;;;;4952511;29;20090;-52
2021/08/14 01:34:20;;;;;;;13.45;8.43;;;29.60;54.30;;;;;;4954367;29;20381;-52
2021/08/14 01:36:55;;;;;;;13.57;8.77;;;29.60;54.30;;;;;;4953367;29;20110;-52
2021/08/14 01:39:21;;;;;;;12.23;9.10;;;29.50;54.40;;;;;;4952977;29;20113;-50
2021/08/14 01:42:01;;;;;;;10.65;8.90;;;29.60;54.30;;;;;;4953649;29;20445;-50
2021/08/14 01:44:28;;;;;;;12.10;8.98;;;29.50;54.50;;;;;;4953956;29;20032;-49
2021/08/14 01:46:54;;;;;;;10.90;8.30;;;29.50;54.40;;;;;;4953823;29;20082;-49
2021/08/14 01:49:20;;;;;;;11.13;8.55;;;29.50;54.40;;;;;;4953931;29;20059;-52
2021/08/14 01:51:47;;;;;;;10.73;8.20;;;29.50;54.50;;;;;;4953100;29;20031;-52
2021/08/14 01:54:14;;;;;;;14.23;8.77;;;29.50;54.50;;;;;;4936828;29;20043;-51
2021/08/14 01:56:40;;;;;;;9.55;8.55;;;29.50;54.60;;;;;;4953474;29;20094;-50
2021/08/14 01:59:06;;;;;;;12.88;9.02;;;29.50;54.50;;;;;;4953584;29;20459;-52
2021/08/14 02:01:32;;;;;;;11.55;8.68;;;29.50;54.60;;;;;;4952164;29;20031;-52
2021/08/14 02:03:58;;;;;;;11.75;8.38;;;29.50;54.60;;;;;;4952140;28;20074;-47
2021/08/14 02:06:26;;;;;;;17.08;9.38;;;29.40;54.60;;;;;;4953410;29;20031;-52
2021/08/14 02:08:52;;;;;;;16.67;8.95;;;29.40;54.60;;;;;;4952063;29;20062;-54
2021/08/14 02:11:21;;;;;;;14.38;8.50;;;29.40;54.60;;;;;;4952617;29;20459;-53
2021/08/14 02:13:49;;;;;;;11.82;8.27;;;29.40;54.70;;;;;;4951879;29;20388;-54
2021/08/14 02:16:16;;;;;;;12.50;8.68;;;29.40;54.60;;;;;;4952463;29;20350;-50
2021/08/14 02:18:41;;;;;;;15.68;9.48;;;29.40;54.60;;;;;;4952001;29;20046;-49
2021/08/14 02:21:08;;;;;;;15.63;9.68;;;29.50;54.60;;;;;;4953729;29;20027;-50
2021/08/14 02:23:35;;;;;;;15.50;9.20;;;29.50;54.60;;;;;;4951851;29;20130;-50
2021/08/14 02:26:01;;;;;;;10.27;8.18;;;29.50;54.60;;;;;;4953648;29;20028;-52
2021/08/14 02:28:27;;;;;;;13.40;8.48;;;29.50;54.60;;;;;;4952759;29;20027;-49
2021/08/14 02:30:53;;;;;;;15.27;9.05;;;29.40;54.50;;;;;;4953471;29;20031;-50
2021/08/14 02:33:19;;;;;;;12.30;9.05;;;29.50;54.60;;;;;;4953630;29;20028;-54
2021/08/14 02:35:45;;;;;;;13.00;8.98;;;29.50;54.70;;;;;;4953032;29;20110;-53
2021/08/14 02:38:11;;;;;;;13.20;8.85;;;29.50;54.70;;;;;;4953300;29;20111;-52
2021/08/14 02:40:36;;;;;;;10.68;9.27;;;29.40;54.70;;;;;;4953338;29;20544;-51
2021/08/14 02:43:04;;;;;;;12.43;8.75;;;29.40;54.60;;;;;;4953541;29;20034;-51
2021/08/14 02:45:31;;;;;;;10.88;8.93;;;29.40;54.60;;;;;;4953012;29;20039;-50
2021/08/14 02:47:57;;;;;;;14.52;9.55;;;29.50;54.60;;;;;;4953323;29;20041;-51
2021/08/14 02:50:23;;;;;;;10.70;8.25;;;29.40;54.60;;;;;;4952924;29;20110;-53
2021/08/14 02:52:50;;;;;;;12.07;8.73;;;29.50;54.60;;;;;;4953347;29;20688;-51
2021/08/14 02:55:16;;;;;;;11.95;9.15;;;29.40;54.60;;;;;;4952273;29;20023;-51
2021/08/14 02:57:41;;;;;;;11.82;8.32;;;29.40;54.70;;;;;;4952483;29;20554;-48
2021/08/14 03:00:08;;;;;;;15.75;9.07;;;29.40;54.80;;;;;;4953376;29;20027;-50
2021/08/14 03:02:33;;;;;;;17.40;9.18;;;29.40;54.90;;;;;;4952732;29;20051;-51
2021/08/14 03:04:59;;;;;;;11.40;8.80;;;29.40;54.90;;;;;;4953446;29;20073;-50
2021/08/14 03:07:25;;;;;;;11.32;8.57;;;29.40;55.00;;;;;;4952802;29;20031;-53
2021/08/14 03:09:50;;;;;;;12.52;8.40;;;29.40;54.90;;;;;;4952127;29;20504;-53
2021/08/14 03:15:00;;;;;;;12.27;9.05;;;29.40;54.90;;;;;;4953154;28;20050;-52
2021/08/14 03:17:25;;;;;;;10.88;8.35;;;29.30;54.80;;;;;;4955505;29;20031;-52
2021/08/14 03:19:51;;;;;;;15.52;9.05;;;29.40;54.90;;;;;;4956842;29;20027;-53
2021/08/14 03:22:17;;;;;;;13.93;8.80;;;29.40;54.90;;;;;;4955246;29;20031;-53
2021/08/14 03:24:42;;;;;;;14.13;8.73;;;29.40;54.80;;;;;;4952135;29;20027;-54
2021/08/14 03:27:08;;;;;;;14.48;8.68;;;29.40;54.70;;;;;;4955589;29;20138;-51
2021/08/14 03:29:34;;;;;;;13.40;8.88;;;29.40;54.70;;;;;;4947104;29;20055;-58
2021/08/14 03:32:00;;;;;;;10.77;8.10;;;29.40;54.60;;;;;;4949709;29;20035;-54
2021/08/14 03:34:25;;;;;;;12.90;8.90;;;29.40;54.60;;;;;;4955175;29;20045;-53
2021/08/14 03:36:51;;;;;;;9.40;7.30;;;29.40;54.60;;;;;;4955834;29;20487;-53
2021/08/14 03:39:17;;;;;;;12.25;8.32;;;29.40;54.70;;;;;;4956406;29;20471;-55
2021/08/14 03:41:43;;;;;;;12.88;8.25;;;29.40;54.70;;;;;;4955778;29;20173;-49
2021/08/14 03:44:09;;;;;;;11.77;8.95;;;29.30;54.70;;;;;;4955950;29;20031;-47
2021/08/14 03:46:35;;;;;;;15.23;9.20;;;29.30;54.80;;;;;;4955647;29;20031;-50
2021/08/14 03:49:00;;;;;;;11.75;8.45;;;29.30;54.80;;;;;;4956093;29;20027;-49
2021/08/14 03:51:26;;;;;;;11.45;7.75;;;29.20;54.90;;;;;;4955368;29;20031;-48
2021/08/14 03:53:52;;;;;;;12.20;8.52;;;29.20;55.00;;;;;;4956096;29;20098;-48
2021/08/14 03:56:17;;;;;;;12.75;9.25;;;29.20;55.10;;;;;;4954509;29;20123;-49
2021/08/14 03:58:43;;;;;;;12.90;8.93;;;29.20;55.20;;;;;;4955107;29;20035;-48
2021/08/14 04:01:10;;;;;;;14.70;9.25;;;29.20;55.20;;;;;;4954402;29;20027;-52
2021/08/14 04:03:36;;;;;;;12.25;8.55;;;29.20;55.20;;;;;;4954281;29;20035;-52
2021/08/14 04:06:02;;;;;;;14.75;9.05;;;29.20;55.10;;;;;;4954861;29;20488;-54
2021/08/14 04:08:27;;;;;;;10.80;8.10;;;29.20;55.10;;;;;;4954654;29;20027;-53
2021/08/14 04:10:53;;;;;;;15.27;8.32;;;29.20;55.10;;;;;;4953569;29;20031;-54
2021/08/14 04:13:25;;;;;;;13.02;7.93;;;29.20;55.20;;;;;;4954747;29;20038;-52
2021/08/14 04:15:51;;;;;;;12.18;8.50;;;29.20;55.30;;;;;;4954966;29;20028;-54
2021/08/14 04:18:16;;;;;;;11.02;8.20;;;29.10;55.30;;;;;;4954418;29;20042;-55
2021/08/14 04:20:42;;;;;;;12.10;8.55;;;29.10;55.40;;;;;;4954912;29;20027;-53
2021/08/14 04:23:08;;;;;;;12.88;9.27;;;29.10;55.40;;;;;;4955220;29;20027;-53
2021/08/14 04:25:34;;;;;;;11.90;9.18;;;29.10;55.40;;;;;;4953660;29;20027;-51
2021/08/14 04:27:59;;;;;;;13.35;9.13;;;29.20;55.40;;;;;;4953894;28;20042;-50
2021/08/14 04:30:25;;;;;;;16.42;9.63;;;29.20;55.30;;;;;;4953958;29;20019;-59
2021/08/14 04:32:51;;;;;;;13.70;9.57;;;29.20;55.30;;;;;;4955408;29;20061;-53
2021/08/14 04:35:17;;;;;;;14.25;8.70;;;29.20;55.30;;;;;;4955483;29;20027;-53
2021/08/14 04:37:44;;;;;;;12.15;8.50;;;29.20;55.40;;;;;;4953444;29;20469;-52
2021/08/14 04:40:14;;;;;;;16.40;9.40;;;29.10;55.40;;;;;;4953990;29;20035;-49
2021/08/14 04:42:40;;;;;;;13.48;9.65;;;29.20;55.60;;;;;;4954670;29;20038;-53
2021/08/14 04:45:07;;;;;;;15.98;9.73;;;29.20;55.60;;;;;;4955307;29;20035;-52
2021/08/14 04:47:32;;;;;;;17.67;10.98;;;29.20;55.70;;;;;;4954223;29;20031;-54
2021/08/14 04:49:58;;;;;;;19.13;11.02;;;29.20;55.90;;;;;;4955180;29;20035;-52
2021/08/14 04:52:24;;;;;;;19.52;10.40;;;29.20;56.00;;;;;;4954403;29;20059;-50
2021/08/14 04:54:49;;;;;;;15.18;10.75;;;29.20;56.00;;;;;;4937346;29;20058;-53
2021/08/14 04:57:16;;;;;;;16.08;11.15;;;29.20;56.10;;;;;;4937370;29;20031;-51
2021/08/14 04:59:41;;;;;;;16.85;10.90;;;29.10;56.10;;;;;;4954055;29;20437;-52
2021/08/14 05:02:07;;;;;;;18.38;10.80;;;29.20;56.30;;;;;;4953927;29;20031;-55
2021/08/14 05:04:33;;;;;;;19.30;10.68;;;29.20;56.20;;;;;;4953551;29;20417;-54
2021/08/14 05:07:00;;;;;;;18.83;11.63;;;29.20;56.30;;;;;;4954833;29;20062;-52
2021/08/14 05:09:26;;;;;;;26.75;11.65;;;29.20;56.30;;;;;;4954492;29;20090;-52
2021/08/14 05:11:52;;;;;;;19.65;11.60;;;29.20;56.30;;;;;;4921157;29;20114;-53
2021/08/14 05:14:18;;;;;;;18.13;10.55;;;29.20;56.20;;;;;;4937675;29;20122;-49
2021/08/14 05:16:44;;;;;;;15.50;11.60;;;29.20;56.00;;;;;;4953932;29;20023;-52
2021/08/14 05:19:10;;;;;;;19.13;10.95;;;29.30;56.00;;;;;;4953414;29;20420;-50
2021/08/14 05:21:36;;;;;;;21.02;11.95;;;29.30;56.00;;;;;;4953865;29;20037;-53
2021/08/14 05:24:03;;;;;;;20.60;11.88;;;29.30;56.00;;;;;;4954671;29;20082;-49
2021/08/14 05:26:29;;;;;;;17.60;10.05;;;29.30;55.90;;;;;;4954506;29;20038;-60
2021/08/14 05:28:55;;;;;;;17.45;11.05;;;29.30;55.70;;;;;;4937318;29;20038;-53
2021/08/14 05:31:21;;;;;;;14.30;10.20;;;29.40;55.70;;;;;;4954588;29;20027;-52
2021/08/14 05:33:46;;;;;;;14.32;10.32;;;29.40;55.70;;;;;;4953759;29;20054;-50
2021/08/14 05:36:12;;;;;;;14.35;9.82;;;29.40;55.60;;;;;;4954162;29;20090;-49
2021/08/14 05:38:38;;;;;;;12.15;9.55;;;29.50;55.50;;;;;;4952338;28;20038;-52
2021/08/14 05:41:05;;;;;;;16.00;9.90;;;29.50;55.20;;;;;;4953032;29;20461;-49
2021/08/14 05:43:31;;;;;;;13.02;9.43;;;29.50;55.30;;;;;;4953951;29;20035;-54
2021/08/14 05:45:57;;;;;;;14.60;9.02;;;29.50;55.20;;;;;;4954333;29;20027;-47
2021/08/14 05:48:22;;;;;;;17.60;10.13;;;29.50;55.10;;;;;;4954129;29;20019;-49
2021/08/14 05:50:48;;;;;;;13.73;8.75;;;29.60;55.10;;;;;;4953505;29;20034;-48
2021/08/14 05:53:14;;;;;;;13.90;9.15;;;29.60;55.00;;;;;;4954144;29;20051;-46
2021/08/14 05:55:40;;;;;;;12.57;9.18;;;29.60;55.00;;;;;;4952324;29;20039;-47
2021/08/14 05:58:12;;;;;;;11.60;8.48;;;29.60;54.80;;;;;;4952981;29;20082;-47
2021/08/14 06:00:38;;;;;;;12.23;8.30;;;29.60;54.80;;;;;;4953343;29;20055;-47
2021/08/14 06:03:04;;;;;;;13.70;8.10;;;29.70;54.80;;;;;;4953640;29;20035;-49
2021/08/14 06:05:29;;;;;;;10.63;7.93;;;29.70;54.60;;;;;;4952801;29;20081;-49
2021/08/14 06:07:55;;;;;;;11.35;8.60;;;29.70;54.50;;;;;;4952164;29;20167;-47
2021/08/14 06:10:21;;;;;;;12.52;8.48;;;29.70;54.40;;;;;;4953978;29;20102;-47
2021/08/14 06:12:47;;;;;;;12.07;9.13;;;29.70;54.60;;;;;;4952080;29;20384;-47
2021/08/14 06:15:13;;;;;;;15.70;9.43;;;29.70;54.70;;;;;;4952786;29;20031;-50
2021/08/14 06:17:39;;;;;;;13.88;9.00;;;29.80;54.70;;;;;;4953361;29;20078;-50
2021/08/14 06:20:06;;;;;;;9.45;7.97;;;29.80;54.70;;;;;;4952530;29;20027;-48
2021/08/14 06:22:35;;;;;;;12.75;8.65;;;29.70;54.50;;;;;;4953738;29;20089;-54
2021/08/14 06:25:02;;;;;;;11.38;7.95;;;29.80;54.60;;;;;;4953669;29;20027;-51
2021/08/14 06:27:28;;;;;;;11.93;8.50;;;29.80;54.30;;;;;;4953715;29;20028;-51
2021/08/14 06:29:53;;;;;;;9.88;7.88;;;29.80;54.00;;;;;;4953213;29;20200;-51
2021/08/14 06:32:19;;;;;;;12.70;7.85;;;29.80;53.80;;;;;;4953358;29;20104;-54
2021/08/14 06:34:45;;;;;;;11.90;8.00;;;29.80;53.80;;;;;;4953227;29;20084;-53
2021/08/14 06:37:11;;;;;;;12.20;8.57;;;29.90;53.70;;;;;;4953329;29;20027;-50
2021/08/14 06:39:37;;;;;;;13.20;7.97;;;29.90;53.60;;;;;;4951864;29;20039;-52
2021/08/14 06:42:03;;;;;;;12.38;8.68;;;29.90;53.50;;;;;;4952334;29;20039;-53
2021/08/14 06:44:29;;;;;;;12.00;7.90;;;29.90;53.60;;;;;;4953580;29;20034;-52
2021/08/14 06:46:56;;;;;;;13.93;7.85;;;29.90;54.30;;;;;;4953149;29;20425;-50
2021/08/14 06:49:22;;;;;;;13.45;8.35;;;29.90;53.70;;;;;;4953740;29;20135;-50
2021/08/14 06:51:48;;;;;;;10.95;8.32;;;29.90;53.80;;;;;;4953823;28;20054;-49
2021/08/14 06:54:13;;;;;;;14.43;8.10;;;29.90;53.70;;;;;;4955883;29;20472;-52
2021/08/14 06:56:39;;;;;;;13.45;8.20;;;30.00;53.80;;;;;;4956757;29;20033;-49
2021/08/14 06:59:05;;;;;;;12.80;7.53;;;30.00;53.70;;;;;;4957089;29;20030;-52
2021/08/14 07:01:30;;;;;;;11.52;7.68;;;30.00;53.50;;;;;;4955823;29;20031;-51
2021/08/14 07:03:57;;;;;;;11.88;7.32;;;30.00;53.40;;;;;;4955158;29;20245;-51
2021/08/14 07:06:25;;;;;;;12.38;7.80;;;30.00;53.50;;;;;;4957321;29;20106;-50
2021/08/14 07:08:51;;;;;;;12.68;7.70;;;30.10;53.60;;;;;;4956515;29;20031;-50
2021/08/14 07:11:19;;;;;;;11.13;8.38;;;30.10;53.50;;;;;;4956642;29;20024;-51
2021/08/14 07:13:47;;;;;;;12.60;8.18;;;30.10;53.40;;;;;;4955998;29;20429;-52
2021/08/14 07:16:13;;;;;;;14.95;8.10;;;30.30;53.30;;;;;;4956849;29;20480;-53
2021/08/14 07:18:39;;;;;;;14.48;7.80;;;30.40;53.10;;;;;;4956458;29;20031;-50
2021/08/14 07:21:05;;;;;;;14.15;7.97;;;30.50;52.80;;;;;;4956547;29;20036;-50
2021/08/14 07:23:30;;;;;;;17.95;8.32;;;30.60;52.60;;;;;;4955370;29;20043;-51
2021/08/14 07:25:56;;;;;;;11.68;7.28;;;30.60;52.30;;;;;;4955744;29;20027;-52
2021/08/14 07:28:23;;;;;;;15.07;8.00;;;30.70;52.20;;;;;;4956677;29;20079;-47
2021/08/14 07:30:49;;;;;;;11.88;8.00;;;30.70;52.20;;;;;;4954807;29;20041;-48
2021/08/14 07:33:15;;;;;;;14.02;7.78;;;30.70;52.00;;;;;;4956404;29;20027;-49
2021/08/14 07:35:42;;;;;;;12.18;7.20;;;30.70;51.90;;;;;;4955967;29;20041;-47
2021/08/14 07:38:07;;;;;;;10.63;7.32;;;30.80;52.00;;;;;;4956793;29;20031;-51
2021/08/14 07:40:33;;;;;;;13.85;7.45;;;30.90;51.90;;;;;;4956032;29;20046;-53
2021/08/14 07:42:59;;;;;;;11.82;7.47;;;30.80;52.00;;;;;;4955695;29;20484;-49
2021/08/14 07:45:25;;;;;;;11.75;6.72;;;30.80;51.90;;;;;;4955946;29;20139;-51
2021/08/14 07:47:51;;;;;;;14.38;7.53;;;30.90;52.10;;;;;;4955059;29;20059;-53
2021/08/14 07:50:22;;;;;;;12.85;7.55;;;30.90;52.00;;;;;;4954835;29;20024;-50
2021/08/14 07:52:49;;;;;;;19.85;8.20;;;30.90;52.00;;;;;;4953714;29;20051;-51
2021/08/14 07:55:15;;;;;;;16.88;8.05;;;30.90;51.80;;;;;;4955222;29;20055;-53
2021/08/14 07:57:42;;;;;;;16.83;8.20;;;30.90;52.00;;;;;;4955095;29;20028;-59
2021/08/14 08:00:10;;;;;;;13.65;7.63;;;30.90;51.80;;;;;;4955515;29;20106;-51
2021/08/14 08:02:37;;;;;;;12.98;7.80;;;30.80;51.70;;;;;;4954600;28;20106;-51
2021/08/14 08:05:04;;;;;;;14.63;7.45;;;30.80;51.70;;;;;;4954256;29;20031;-53
2021/08/14 08:07:30;;;;;;;15.60;7.28;;;30.80;51.60;;;;;;4955323;29;20035;-54
2021/08/14 08:09:56;;;;;;;11.50;7.18;;;30.90;51.50;;;;;;4954870;29;20380;-53
2021/08/14 08:12:21;;;;;;;13.73;6.63;;;30.80;51.30;;;;;;4955533;29;20491;-54
2021/08/14 08:14:47;;;;;;;15.48;6.78;;;30.80;51.30;;;;;;4954985;29;20035;-56
2021/08/14 08:17:13;;;;;;;15.07;7.65;;;30.70;51.20;;;;;;4953818;29;20029;-54
2021/08/14 08:19:38;;;;;;;15.90;8.05;;;30.70;51.30;;;;;;4953962;29;20054;-51
2021/08/14 08:22:04;;;;;;;17.60;7.70;;;30.80;51.30;;;;;;4954655;29;20051;-53
2021/08/14 08:24:30;;;;;;;12.07;7.47;;;30.70;51.30;;;;;;4955118;29;20511;-55
2021/08/14 08:26:56;;;;;;;11.88;7.05;;;30.80;51.50;;;;;;4954578;29;20465;-55
2021/08/14 08:29:21;;;;;;;14.50;7.43;;;30.80;51.70;;;;;;4955271;29;20027;-54
2021/08/14 08:31:47;;;;;;;12.90;7.32;;;30.80;51.60;;;;;;4954495;29;20027;-53
2021/08/14 08:34:13;;;;;;;12.32;7.05;;;30.80;51.60;;;;;;4953505;29;20136;-53
2021/08/14 08:36:39;;;;;;;14.63;7.13;;;30.80;51.70;;;;;;4954901;29;20024;-54
2021/08/14 08:39:05;;;;;;;16.38;7.47;;;30.80;51.70;;;;;;4954133;29;20170;-55
2021/08/14 08:41:32;;;;;;;15.63;6.65;;;30.80;51.60;;;;;;4954346;29;20028;-53
2021/08/14 08:43:58;;;;;;;10.73;6.97;;;30.80;51.50;;;;;;4953797;29;20032;-50
2021/08/14 08:46:27;;;;;;;15.68;7.80;;;30.90;51.50;;;;;;4954250;29;20031;-56
2021/08/14 08:48:53;;;;;;;12.23;7.07;;;30.80;51.50;;;;;;4952028;29;20027;-50
2021/08/14 08:51:30;;;;;;;12.57;7.03;;;30.80;51.50;;;;;;4954295;29;20033;-52
2021/08/14 08:53:56;;;;;;;16.90;7.10;;;30.70;51.40;;;;;;4954191;29;20051;-54
2021/08/14 08:56:21;;;;;;;14.25;6.88;;;30.90;51.30;;;;;;4954205;29;20369;-54
2021/08/14 08:58:47;;;;;;;16.58;7.63;;;30.90;51.30;;;;;;4952835;29;20027;-56
2021/08/14 09:01:13;;;;;;;10.65;6.63;;;30.90;51.30;;;;;;4954251;29;20392;-56
2021/08/14 09:03:39;;;;;;;11.82;6.78;;;30.90;51.20;;;;;;4954005;29;20039;-54
2021/08/14 09:06:05;;;;;;;11.65;6.55;;;30.80;51.20;;;;;;4952627;29;20046;-53
2021/08/14 09:08:30;;;;;;;12.80;6.97;;;30.80;51.00;;;;;;4953858;29;20050;-56
2021/08/14 09:11:12;;;;;;;11.13;6.93;;;30.90;51.00;;;;;;4952293;29;20035;-53
2021/08/14 09:13:39;;;;;;;15.73;7.05;;;30.80;50.90;;;;;;4951810;28;20027;-57
2021/08/14 09:16:24;;;;;;;16.35;7.22;;;30.90;50.90;;;;;;4952288;29;20392;-55
2021/08/14 09:18:59;;;;;;;11.30;6.53;;;30.80;50.90;;;;;;4952022;29;20031;-55
2021/08/14 09:21:34;;;;;;;16.35;6.97;;;30.90;50.80;;;;;;4951793;29;20035;-55
2021/08/14 09:24:07;;;;;;;12.40;6.82;;;30.80;50.80;;;;;;4951304;29;20473;-51
2021/08/14 09:26:36;;;;;;;13.63;6.72;;;30.90;50.70;;;;;;4952975;29;20027;-55
2021/08/14 09:29:06;;;;;;;13.48;6.85;;;30.90;50.70;;;;;;4946118;29;20122;-54
2021/08/14 09:31:59;;;;;;;12.80;6.82;;;30.90;50.70;;;;;;4951502;29;20118;-50
2021/08/14 09:34:26;;;;;;;9.40;7.03;;;30.90;50.80;;;;;;4950483;29;20147;-56
2021/08/14 09:36:57;;;;;;;11.23;6.13;;;30.90;50.70;;;;;;4950296;29;20093;-52
2021/08/14 09:39:24;;;;;;;11.95;6.63;;;30.90;50.80;;;;;;4952860;29;20027;-55
2021/08/14 09:42:08;;;;;;;12.50;6.68;;;30.90;50.60;;;;;;4951698;29;20433;-57
2021/08/14 09:44:37;;;;;;;14.82;7.05;;;30.90;50.70;;;;;;4952701;29;20037;-54
2021/08/14 09:47:11;;;;;;;12.07;6.90;;;30.90;50.70;;;;;;4952349;29;20581;-54
2021/08/14 09:49:54;;;;;;;12.00;7.40;;;30.90;50.70;;;;;;4952962;29;20023;-51
2021/08/14 09:52:21;;;;;;;25.73;7.63;;;30.90;50.80;;;;;;4952785;29;20465;-51
2021/08/14 09:54:48;;;;;;;17.98;7.68;;;31.00;50.90;;;;;;4953318;29;20042;-61
2021/08/14 09:57:15;;;;;;;16.33;6.90;;;31.00;51.00;;;;;;4953480;29;20023;-53
2021/08/14 09:59:43;;;;;;;23.98;12.77;;;31.00;51.00;;;;;;4952878;29;20109;-56
2021/08/14 10:02:14;;;;;;;21.55;11.02;;;31.00;50.90;;;;;;4952732;29;20050;-54
2021/08/14 10:04:40;;;;;;;20.15;9.60;;;30.90;51.00;;;;;;4953406;29;20110;-55
2021/08/14 10:07:06;;;;;;;14.43;9.15;;;31.00;51.00;;;;;;4951285;29;20133;-49
2021/08/14 10:09:32;;;;;;;20.25;8.95;;;31.00;51.10;;;;;;4953320;29;20093;-53
2021/08/14 10:11:58;;;;;;;16.77;8.05;;;31.00;51.20;;;;;;4951196;29;20027;-58
2021/08/14 10:14:24;;;;;;;14.70;8.93;;;31.00;51.20;;;;;;4952505;29;20027;-55
2021/08/14 10:16:51;;;;;;;17.25;8.77;;;31.00;51.30;;;;;;4952374;29;20107;-51
2021/08/14 10:19:16;;;;;;;13.98;8.95;;;31.00;51.60;;;;;;4952572;29;20027;-53
2021/08/14 10:21:42;;;;;;;17.23;9.20;;;31.00;51.30;;;;;;4952482;29;20027;-52
2021/08/14 10:24:08;;;;;;;15.55;7.90;;;31.00;51.40;;;;;;4950614;29;20302;-52
2021/08/14 10:26:34;;;;;;;12.23;7.35;;;31.00;51.40;;;;;;4955056;28;20469;-51
2021/08/14 10:29:01;;;;;;;15.98;7.15;;;31.10;51.60;;;;;;4954183;29;20035;-55
2021/08/14 10:31:30;;;;;;;20.13;6.72;;;31.10;51.50;;;;;;4954516;29;20110;-52
2021/08/14 10:34:12;;;;;;;12.38;6.28;;;31.10;51.70;;;;;;4954834;29;20110;-52
2021/08/14 10:36:39;;;;;;;14.43;7.70;;;31.10;51.70;;;;;;4955915;29;20491;-50
2021/08/14 10:39:17;;;;;;;12.43;7.57;;;31.10;51.80;;;;;;4955089;29;20070;-52
2021/08/14 10:41:43;;;;;;;14.38;7.32;;;31.10;51.80;;;;;;4956082;29;20353;-54
2021/08/14 10:44:10;;;;;;;13.80;7.03;;;31.10;51.70;;;;;;4953677;29;20409;-52
2021/08/14 10:46:36;;;;;;;13.25;6.93;;;31.20;51.70;;;;;;4955214;29;20416;-52
2021/08/14 10:49:02;;;;;;;16.55;7.25;;;31.10;51.70;;;;;;4955804;29;20038;-55
2021/08/14 10:51:47;;;;;;;12.73;7.20;;;31.20;51.80;;;;;;4956434;29;20027;-55
2021/08/14 10:54:14;;;;;;;15.38;6.35;;;31.10;51.70;;;;;;4955626;29;20046;-53
2021/08/14 10:56:51;;;;;;;15.57;6.75;;;31.20;51.60;;;;;;4956246;29;20031;-53
2021/08/14 10:59:38;;;;;;;12.98;6.32;;;31.10;51.60;;;;;;4955372;29;20078;-53
2021/08/14 11:02:10;;;;;;;10.88;5.78;;;31.20;51.60;;;;;;4953220;29;20038;-51
2021/08/14 11:04:39;;;;;;;11.55;5.50;;;31.10;51.10;;;;;;4954302;29;20069;-53
2021/08/14 11:07:20;;;;;;;9.43;5.22;;;31.20;50.60;;;;;;4955359;29;20102;-54
2021/08/14 11:09:52;;;;;;;12.50;4.63;;;31.20;50.40;;;;;;4955507;29;20106;-52
2021/08/14 11:12:31;;;;;;;9.93;4.93;;;31.20;49.40;;;;;;4954000;29;20031;-53
2021/08/14 11:15:17;;;;;;;12.48;5.50;;;31.10;49.30;;;;;;4954972;29;20038;-57
2021/08/14 11:17:47;;;;;;;15.43;9.60;;;31.10;49.30;;;;;;4953985;29;20032;-52
2021/08/14 11:20:43;;;;;;;15.85;9.13;;;31.20;49.00;;;;;;4955079;29;20114;-55
2021/08/14 11:23:27;;;;;;;14.25;8.70;;;31.10;49.30;;;;;;4955190;29;20243;-53
2021/08/14 11:25:53;;;;;;;16.17;7.10;;;31.10;48.80;;;;;;4955035;29;20038;-56
2021/08/14 11:28:28;;;;;;;11.68;6.57;;;31.20;48.10;;;;;;4954241;29;20477;-51
2021/08/14 11:30:59;;;;;;;12.60;5.70;;;31.10;48.40;;;;;;4955066;29;20058;-53
2021/08/14 11:33:35;;;;;;;13.05;5.57;;;31.20;48.00;;;;;;4954211;29;20456;-52
2021/08/14 11:36:07;;;;;;;12.88;5.38;;;31.10;47.90;;;;;;4952796;28;20031;-56
2021/08/14 11:38:39;;;;;;;10.25;5.28;;;31.20;48.20;;;;;;4953735;29;20034;-53
2021/08/14 11:41:12;;;;;;;11.52;5.05;;;31.20;48.10;;;;;;4953408;29;20027;-50
2021/08/14 11:43:40;;;;;;;14.80;5.35;;;31.10;47.90;;;;;;4951074;29;20142;-54
2021/08/14 11:46:07;;;;;;;11.52;5.30;;;31.20;47.80;;;;;;4954752;29;20035;-53
2021/08/14 11:48:40;;;;;;;12.02;5.50;;;31.20;48.00;;;;;;4953351;29;20034;-54
2021/08/14 11:51:18;;;;;;;12.57;5.38;;;31.10;47.90;;;;;;4953357;29;20426;-52
2021/08/14 11:53:44;;;;;;;11.82;5.75;;;31.20;48.10;;;;;;4953224;29;20118;-54
2021/08/14 11:56:12;;;;;;;10.02;5.32;;;31.20;47.90;;;;;;4950438;29;20043;-56
2021/08/14 11:58:39;;;;;;;10.15;5.72;;;31.20;48.00;;;;;;4952872;29;20118;-53
2021/08/14 12:01:06;;;;;;;10.48;5.13;;;31.20;47.80;;;;;;4952580;29;20469;-52
2021/08/14 12:03:32;;;;;;;12.25;5.35;;;31.20;47.90;;;;;;4955124;29;20028;-52
2021/08/14 12:06:10;;;;;;;10.27;5.90;;;31.20;48.00;;;;;;4954064;29;20042;-52
2021/08/14 12:08:38;;;;;;;14.25;5.80;;;31.20;48.10;;;;;;4952955;29;20370;-52
2021/08/14 12:11:26;;;;;;;11.07;5.65;;;31.20;48.10;;;;;;4954335;29;20023;-54
2021/08/14 12:14:15;;;;;;;9.95;5.53;;;31.30;48.80;;;;;;4953886;29;20031;-57
2021/08/14 12:16:42;;;;;;;9.32;5.82;;;31.20;48.20;;;;;;4953057;29;20054;-54
2021/08/14 12:19:31;;;;;;;16.40;6.43;;;31.30;48.30;;;;;;4952058;29;20034;-55
2021/08/14 12:22:10;;;;;;;13.80;6.40;;;31.30;48.30;;;;;;4954290;29;20027;-49
2021/08/14 12:24:37;;;;;;;15.68;6.18;;;31.30;48.30;;;;;;4953362;29;20088;-53
2021/08/14 12:27:23;;;;;;;13.80;6.45;;;31.40;48.40;;;;;;4952408;29;20027;-55
2021/08/14 12:29:49;;;;;;;11.73;5.82;;;31.30;48.30;;;;;;4954013;29;20154;-54
2021/08/14 12:32:15;;;;;;;12.10;6.18;;;31.40;48.30;;;;;;4953645;29;20032;-54
2021/08/14 12:34:42;;;;;;;13.43;6.70;;;31.40;48.30;;;;;;4953925;29;20384;-51
2021/08/14 12:37:10;;;;;;;13.07;6.32;;;31.40;48.20;;;;;;4951762;29;20073;-52
2021/08/14 12:39:51;;;;;;;11.00;6.78;;;31.40;48.30;;;;;;4953390;29;20400;-57
2021/08/14 12:42:28;;;;;;;12.95;6.57;;;31.40;48.30;;;;;;4953186;29;20449;-55